Impacts METAR Board INFO
IDs:

KLAX - Los Angeles Intl, CA, US

Updated at: 1319 UTC 18 Jan 2018
Potential Impact None Slight Moderate High
Time18/01Z 18/02Z 18/03Z 18/04Z 18/05Z 18/06Z 18/07Z 18/08Z 18/09Z 18/10Z 18/11Z 18/12Z 18/13Z
VIS10 10 10 10 10 10 10 10 10 10 10 10 10
CIG-- -- -- -- -- -- -- 250 -- -- -- -- --
CoverSCTSCTCLRCLRCLRCLRSCTBKNSCTSCTFEWFEWSCT
FltCatVFRVFRVFRVFRVFRVFRVFRVFRVFRVFRVFRVFRVFR
WX--------------------------
WDir2502402002600000100120000
WSpd4 4 5 4 0 0 5 0 3 4 0 0 0
WGst-- -- -- -- -- -- -- -- -- -- -- -- --
Raw hourly METARs
KLAX 180053Z 25004KT 10SM FEW150 FEW200 SCT250 18/13 A3011 RMK AO2 SLP195 T01780128 $
KLAX 180153Z 24004KT 10SM FEW150 FEW200 SCT250 17/13 A3011 RMK AO2 SLP195 T01670133 $
KLAX 180253Z 20005KT 10SM CLR 17/13 A3010 RMK AO2 SLP191 T01670133 58005 $
KLAX 180353Z 26004KT 10SM CLR 17/14 A3010 RMK AO2 SLP192 T01670139 $
KLAX 180453Z 00000KT 10SM CLR 17/14 A3011 RMK AO2 SLP194 T01670139 $
KLAX 180553Z 00000KT 10SM CLR 17/14 A3012 RMK AO2 SLP195 T01670139 10194 20161 53006 $
KLAX 180653Z VRB05KT 10SM SCT200 SCT250 18/12 A3010 RMK AO2 SLP192 T01780122 $
KLAX 180753Z 00000KT 10SM FEW200 BKN250 18/09 A3009 RMK AO2 SLP187 T01780094 402330122 $
KLAX 180853Z 10003KT 10SM FEW200 SCT250 17/09 A3009 RMK AO2 SLP186 T01670089 56009 $
KLAX 180953Z 12004KT 10SM FEW200 SCT250 16/08 A3009 RMK AO2 SLP186 T01560083 $
KLAX 181053Z 00000KT 10SM FEW015 FEW200 15/10 A3008 RMK AO2 SLP183 T01500100 $
KLAX 181153Z 00000KT 10SM FEW015 FEW200 14/09 A3007 RMK AO2 SLP180 T01390094 10194 20133 58006 $
KLAX 181253Z 00000KT 10SM FEW015 FEW200 SCT250 13/09 A3007 RMK AO2 SLP181 T01280089 $